sensor_id;sensor_type;location;lat;lon;timestamp;temperature;humidity
68476;DHT22;55464;48.266;14.188;2022-08-21T00:01:53;18.50;87.50
68476;DHT22;55464;48.266;14.188;2022-08-21T00:04:19;18.50;87.60
68476;DHT22;55464;48.266;14.188;2022-08-21T00:06:45;18.50;87.60
68476;DHT22;55464;48.266;14.188;2022-08-21T00:09:10;18.50;87.70
68476;DHT22;55464;48.266;14.188;2022-08-21T00:11:38;18.40;87.80
68476;DHT22;55464;48.266;14.188;2022-08-21T00:14:06;18.40;87.80
68476;DHT22;55464;48.266;14.188;2022-08-21T00:16:32;18.50;87.80
68476;DHT22;55464;48.266;14.188;2022-08-21T00:18:58;18.40;87.90
68476;DHT22;55464;48.266;14.188;2022-08-21T00:21:24;18.50;87.80
68476;DHT22;55464;48.266;14.188;2022-08-21T00:23:51;18.40;87.80
68476;DHT22;55464;48.266;14.188;2022-08-21T00:26:17;18.50;87.80
68476;DHT22;55464;48.266;14.188;2022-08-21T00:28:43;18.40;87.80
68476;DHT22;55464;48.266;14.188;2022-08-21T00:31:11;18.40;87.90
68476;DHT22;55464;48.266;14.188;2022-08-21T00:33:37;18.40;87.80
68476;DHT22;55464;48.266;14.188;2022-08-21T00:36:03;18.40;87.90
68476;DHT22;55464;48.266;14.188;2022-08-21T00:38:29;18.40;88.00
68476;DHT22;55464;48.266;14.188;2022-08-21T00:40:57;18.40;88.00
68476;DHT22;55464;48.266;14.188;2022-08-21T00:43:29;18.40;88.00
68476;DHT22;55464;48.266;14.188;2022-08-21T00:45:57;18.40;88.00
68476;DHT22;55464;48.266;14.188;2022-08-21T00:48:23;18.40;88.10
68476;DHT22;55464;48.266;14.188;2022-08-21T00:51:04;18.40;88.00
68476;DHT22;55464;48.266;14.188;2022-08-21T00:53:31;18.40;88.00
68476;DHT22;55464;48.266;14.188;2022-08-21T00:55:58;18.40;88.10
68476;DHT22;55464;48.266;14.188;2022-08-21T00:58:26;18.40;88.00
68476;DHT22;55464;48.266;14.188;2022-08-21T01:00:53;18.40;88.00
68476;DHT22;55464;48.266;14.188;2022-08-21T01:03:21;18.40;88.10
68476;DHT22;55464;48.266;14.188;2022-08-21T01:05:47;18.40;88.10
68476;DHT22;55464;48.266;14.188;2022-08-21T01:08:15;18.40;88.00
68476;DHT22;55464;48.266;14.188;2022-08-21T01:10:42;18.40;88.10
68476;DHT22;55464;48.266;14.188;2022-08-21T01:13:09;18.40;88.10
68476;DHT22;55464;48.266;14.188;2022-08-21T01:15:39;18.40;88.20
68476;DHT22;55464;48.266;14.188;2022-08-21T01:18:07;18.40;88.10
68476;DHT22;55464;48.266;14.188;2022-08-21T01:20:35;18.40;88.10
68476;DHT22;55464;48.266;14.188;2022-08-21T01:23:04;18.40;88.20
68476;DHT22;55464;48.266;14.188;2022-08-21T01:25:31;18.40;88.20
68476;DHT22;55464;48.266;14.188;2022-08-21T01:27:59;18.40;88.40
68476;DHT22;55464;48.266;14.188;2022-08-21T01:30:27;18.40;88.30
68476;DHT22;55464;48.266;14.188;2022-08-21T01:32:54;18.40;88.40
68476;DHT22;55464;48.266;14.188;2022-08-21T01:35:20;18.40;88.40
68476;DHT22;55464;48.266;14.188;2022-08-21T01:37:47;18.40;88.50
68476;DHT22;55464;48.266;14.188;2022-08-21T01:40:15;18.40;88.50
68476;DHT22;55464;48.266;14.188;2022-08-21T01:42:43;18.50;88.50
68476;DHT22;55464;48.266;14.188;2022-08-21T01:45:10;18.40;88.50
68476;DHT22;55464;48.266;14.188;2022-08-21T01:47:36;18.40;88.50
68476;DHT22;55464;48.266;14.188;2022-08-21T01:50:05;18.40;88.50
68476;DHT22;55464;48.266;14.188;2022-08-21T01:52:32;18.50;88.30
68476;DHT22;55464;48.266;14.188;2022-08-21T01:54:58;18.40;88.30
68476;DHT22;55464;48.266;14.188;2022-08-21T01:57:24;18.40;88.40
68476;DHT22;55464;48.266;14.188;2022-08-21T01:59:49;18.40;88.50
68476;DHT22;55464;48.266;14.188;2022-08-21T02:02:15;18.40;88.50
68476;DHT22;55464;48.266;14.188;2022-08-21T02:04:41;18.40;88.50
68476;DHT22;55464;48.266;14.188;2022-08-21T02:07:07;18.40;88.50
68476;DHT22;55464;48.266;14.188;2022-08-21T02:09:32;18.40;88.50
68476;DHT22;55464;48.266;14.188;2022-08-21T02:11:59;18.40;88.60
68476;DHT22;55464;48.266;14.188;2022-08-21T02:14:25;18.40;88.50
68476;DHT22;55464;48.266;14.188;2022-08-21T02:16:51;18.40;88.40
68476;DHT22;55464;48.266;14.188;2022-08-21T02:19:17;18.40;88.50
68476;DHT22;55464;48.266;14.188;2022-08-21T02:21:43;18.40;88.50
68476;DHT22;55464;48.266;14.188;2022-08-21T02:24:10;18.40;88.40
68476;DHT22;55464;48.266;14.188;2022-08-21T02:26:36;18.40;88.40
68476;DHT22;55464;48.266;14.188;2022-08-21T02:29:02;18.40;88.40
68476;DHT22;55464;48.266;14.188;2022-08-21T02:31:28;18.40;88.40
68476;DHT22;55464;48.266;14.188;2022-08-21T02:33:54;18.40;88.50
68476;DHT22;55464;48.266;14.188;2022-08-21T02:36:20;18.40;88.50
68476;DHT22;55464;48.266;14.188;2022-08-21T02:38:45;18.40;88.50
68476;DHT22;55464;48.266;14.188;2022-08-21T02:41:14;18.40;88.60
68476;DHT22;55464;48.266;14.188;2022-08-21T02:43:41;18.40;88.50
68476;DHT22;55464;48.266;14.188;2022-08-21T02:46:08;18.40;88.50
68476;DHT22;55464;48.266;14.188;2022-08-21T02:48:34;18.40;88.30
68476;DHT22;55464;48.266;14.188;2022-08-21T02:51:08;18.40;88.30
68476;DHT22;55464;48.266;14.188;2022-08-21T02:53:35;18.40;88.40
68476;DHT22;55464;48.266;14.188;2022-08-21T02:56:04;18.40;88.30
68476;DHT22;55464;48.266;14.188;2022-08-21T02:58:37;18.40;88.40
68476;DHT22;55464;48.266;14.188;2022-08-21T03:01:04;18.40;88.50
68476;DHT22;55464;48.266;14.188;2022-08-21T03:03:31;18.30;88.60
68476;DHT22;55464;48.266;14.188;2022-08-21T03:05:57;18.30;88.50
68476;DHT22;55464;48.266;14.188;2022-08-21T03:08:23;18.30;88.50
68476;DHT22;55464;48.266;14.188;2022-08-21T03:10:51;18.30;88.50
68476;DHT22;55464;48.266;14.188;2022-08-21T03:13:18;18.40;88.50
68476;DHT22;55464;48.266;14.188;2022-08-21T03:15:45;18.30;88.50
68476;DHT22;55464;48.266;14.188;2022-08-21T03:18:12;18.30;88.60
68476;DHT22;55464;48.266;14.188;2022-08-21T03:20:39;18.40;88.40
68476;DHT22;55464;48.266;14.188;2022-08-21T03:23:06;18.30;88.30
68476;DHT22;55464;48.266;14.188;2022-08-21T03:25:33;18.30;88.40
68476;DHT22;55464;48.266;14.188;2022-08-21T03:28:01;18.30;88.30
68476;DHT22;55464;48.266;14.188;2022-08-21T03:30:27;18.30;88.30
68476;DHT22;55464;48.266;14.188;2022-08-21T03:32:53;18.30;88.40
68476;DHT22;55464;48.266;14.188;2022-08-21T03:35:19;18.30;88.40
68476;DHT22;55464;48.266;14.188;2022-08-21T03:37:46;18.30;88.40
68476;DHT22;55464;48.266;14.188;2022-08-21T03:40:14;18.30;88.30
68476;DHT22;55464;48.266;14.188;2022-08-21T03:42:40;18.30;88.30
68476;DHT22;55464;48.266;14.188;2022-08-21T03:45:06;18.30;88.10
68476;DHT22;55464;48.266;14.188;2022-08-21T03:47:32;18.30;88.30
68476;DHT22;55464;48.266;14.188;2022-08-21T03:49:57;18.30;88.20
68476;DHT22;55464;48.266;14.188;2022-08-21T03:52:24;18.30;88.30
68476;DHT22;55464;48.266;14.188;2022-08-21T03:54:50;18.30;88.30
68476;DHT22;55464;48.266;14.188;2022-08-21T03:57:16;18.30;88.40
68476;DHT22;55464;48.266;14.188;2022-08-21T03:59:42;18.30;88.40
68476;DHT22;55464;48.266;14.188;2022-08-21T04:02:08;18.30;88.40
68476;DHT22;55464;48.266;14.188;2022-08-21T04:04:35;18.30;88.40
68476;DHT22;55464;48.266;14.188;2022-08-21T04:07:01;18.30;88.40
68476;DHT22;55464;48.266;14.188;2022-08-21T04:09:27;18.20;88.40
68476;DHT22;55464;48.266;14.188;2022-08-21T04:11:53;18.30;88.30
68476;DHT22;55464;48.266;14.188;2022-08-21T04:14:19;18.20;88.40
68476;DHT22;55464;48.266;14.188;2022-08-21T04:16:45;18.30;88.30
68476;DHT22;55464;48.266;14.188;2022-08-21T04:19:12;18.20;88.30
68476;DHT22;55464;48.266;14.188;2022-08-21T04:21:41;18.30;88.30
68476;DHT22;55464;48.266;14.188;2022-08-21T04:24:08;18.30;88.40
68476;DHT22;55464;48.266;14.188;2022-08-21T04:26:36;18.20;88.30
68476;DHT22;55464;48.266;14.188;2022-08-21T04:29:03;18.20;88.30
68476;DHT22;55464;48.266;14.188;2022-08-21T04:31:32;18.20;88.20
68476;DHT22;55464;48.266;14.188;2022-08-21T04:33:59;18.20;88.30
68476;DHT22;55464;48.266;14.188;2022-08-21T04:36:25;18.20;87.90
68476;DHT22;55464;48.266;14.188;2022-08-21T04:38:50;18.20;88.00
68476;DHT22;55464;48.266;14.188;2022-08-21T04:41:16;18.20;88.00
68476;DHT22;55464;48.266;14.188;2022-08-21T04:43:42;18.20;88.00
68476;DHT22;55464;48.266;14.188;2022-08-21T04:46:08;18.20;88.10
68476;DHT22;55464;48.266;14.188;2022-08-21T04:48:34;18.20;88.20
68476;DHT22;55464;48.266;14.188;2022-08-21T04:51:11;18.20;88.30
68476;DHT22;55464;48.266;14.188;2022-08-21T04:53:47;18.20;88.30
68476;DHT22;55464;48.266;14.188;2022-08-21T04:56:26;18.20;88.30
68476;DHT22;55464;48.266;14.188;2022-08-21T04:58:55;18.20;88.20
68476;DHT22;55464;48.266;14.188;2022-08-21T05:01:23;18.20;88.20
68476;DHT22;55464;48.266;14.188;2022-08-21T05:03:54;18.20;88.30
68476;DHT22;55464;48.266;14.188;2022-08-21T05:06:21;18.20;88.20
68476;DHT22;55464;48.266;14.188;2022-08-21T05:08:49;18.20;88.10
68476;DHT22;55464;48.266;14.188;2022-08-21T05:11:17;18.20;88.30
68476;DHT22;55464;48.266;14.188;2022-08-21T05:13:43;18.20;88.40
68476;DHT22;55464;48.266;14.188;2022-08-21T05:16:09;18.20;88.50
68476;DHT22;55464;48.266;14.188;2022-08-21T05:18:34;18.20;88.40
68476;DHT22;55464;48.266;14.188;2022-08-21T05:21:00;18.20;88.40
68476;DHT22;55464;48.266;14.188;2022-08-21T05:23:26;18.20;88.40
68476;DHT22;55464;48.266;14.188;2022-08-21T05:25:52;18.20;88.40
68476;DHT22;55464;48.266;14.188;2022-08-21T05:28:19;18.20;88.60
68476;DHT22;55464;48.266;14.188;2022-08-21T05:30:44;18.20;88.60
68476;DHT22;55464;48.266;14.188;2022-08-21T05:33:10;18.20;88.60
68476;DHT22;55464;48.266;14.188;2022-08-21T05:35:36;18.20;88.70
68476;DHT22;55464;48.266;14.188;2022-08-21T05:38:03;18.30;88.80
68476;DHT22;55464;48.266;14.188;2022-08-21T05:40:29;18.30;88.70
68476;DHT22;55464;48.266;14.188;2022-08-21T05:42:55;18.30;88.60
68476;DHT22;55464;48.266;14.188;2022-08-21T05:45:26;18.30;88.70
68476;DHT22;55464;48.266;14.188;2022-08-21T05:47:52;18.30;88.70
68476;DHT22;55464;48.266;14.188;2022-08-21T05:50:18;18.30;88.80
68476;DHT22;55464;48.266;14.188;2022-08-21T05:52:44;18.20;88.80
68476;DHT22;55464;48.266;14.188;2022-08-21T05:55:10;18.30;88.80
68476;DHT22;55464;48.266;14.188;2022-08-21T05:57:35;18.30;88.90
68476;DHT22;55464;48.266;14.188;2022-08-21T06:00:03;18.30;89.00
68476;DHT22;55464;48.266;14.188;2022-08-21T06:02:28;18.30;89.00
68476;DHT22;55464;48.266;14.188;2022-08-21T06:04:56;18.30;89.00
68476;DHT22;55464;48.266;14.188;2022-08-21T06:07:22;18.40;89.00
68476;DHT22;55464;48.266;14.188;2022-08-21T06:09:48;18.30;89.00
68476;DHT22;55464;48.266;14.188;2022-08-21T06:12:14;18.40;88.90
68476;DHT22;55464;48.266;14.188;2022-08-21T06:14:41;18.30;89.10
68476;DHT22;55464;48.266;14.188;2022-08-21T06:17:10;18.30;89.10
68476;DHT22;55464;48.266;14.188;2022-08-21T06:19:36;18.30;89.10
68476;DHT22;55464;48.266;14.188;2022-08-21T06:22:03;18.40;89.10
68476;DHT22;55464;48.266;14.188;2022-08-21T06:24:28;18.40;89.20
68476;DHT22;55464;48.266;14.188;2022-08-21T06:26:55;18.40;89.20
68476;DHT22;55464;48.266;14.188;2022-08-21T06:29:21;18.40;89.20
68476;DHT22;55464;48.266;14.188;2022-08-21T06:31:48;18.40;89.20
68476;DHT22;55464;48.266;14.188;2022-08-21T06:34:15;18.30;89.30
68476;DHT22;55464;48.266;14.188;2022-08-21T06:36:41;18.30;89.30
68476;DHT22;55464;48.266;14.188;2022-08-21T06:39:07;18.40;89.30
68476;DHT22;55464;48.266;14.188;2022-08-21T06:41:33;18.40;89.40
68476;DHT22;55464;48.266;14.188;2022-08-21T06:43:59;18.40;89.40
68476;DHT22;55464;48.266;14.188;2022-08-21T06:46:26;18.40;89.40
68476;DHT22;55464;48.266;14.188;2022-08-21T06:48:52;18.40;89.40
68476;DHT22;55464;48.266;14.188;2022-08-21T06:51:18;18.40;89.50
68476;DHT22;55464;48.266;14.188;2022-08-21T06:53:44;18.50;89.60
68476;DHT22;55464;48.266;14.188;2022-08-21T06:56:10;18.40;89.50
68476;DHT22;55464;48.266;14.188;2022-08-21T06:58:35;18.50;89.60
68476;DHT22;55464;48.266;14.188;2022-08-21T07:01:02;18.50;89.70
68476;DHT22;55464;48.266;14.188;2022-08-21T07:03:31;18.50;89.60
68476;DHT22;55464;48.266;14.188;2022-08-21T07:05:57;18.50;89.70
68476;DHT22;55464;48.266;14.188;2022-08-21T07:08:24;18.50;89.70
68476;DHT22;55464;48.266;14.188;2022-08-21T07:10:51;18.50;89.80
68476;DHT22;55464;48.266;14.188;2022-08-21T07:13:18;18.50;90.00
68476;DHT22;55464;48.266;14.188;2022-08-21T07:15:44;18.50;90.10
68476;DHT22;55464;48.266;14.188;2022-08-21T07:18:10;18.50;90.10
68476;DHT22;55464;48.266;14.188;2022-08-21T07:20:37;18.50;90.10
68476;DHT22;55464;48.266;14.188;2022-08-21T07:23:09;18.50;89.90
68476;DHT22;55464;48.266;14.188;2022-08-21T07:25:36;18.50;89.90
68476;DHT22;55464;48.266;14.188;2022-08-21T07:28:02;18.50;90.00
68476;DHT22;55464;48.266;14.188;2022-08-21T07:30:27;18.50;90.00
68476;DHT22;55464;48.266;14.188;2022-08-21T07:32:53;18.50;90.00
68476;DHT22;55464;48.266;14.188;2022-08-21T07:35:20;18.50;90.00
68476;DHT22;55464;48.266;14.188;2022-08-21T07:37:46;18.50;90.10
68476;DHT22;55464;48.266;14.188;2022-08-21T07:40:13;18.50;89.90
68476;DHT22;55464;48.266;14.188;2022-08-21T07:42:44;18.60;89.90
68476;DHT22;55464;48.266;14.188;2022-08-21T07:45:11;18.60;90.00
68476;DHT22;55464;48.266;14.188;2022-08-21T07:47:37;18.60;90.00
68476;DHT22;55464;48.266;14.188;2022-08-21T07:50:04;18.60;90.00
68476;DHT22;55464;48.266;14.188;2022-08-21T07:52:30;18.60;90.10
68476;DHT22;55464;48.266;14.188;2022-08-21T07:54:56;18.60;89.80
68476;DHT22;55464;48.266;14.188;2022-08-21T07:57:21;18.60;89.80
68476;DHT22;55464;48.266;14.188;2022-08-21T07:59:47;18.60;89.80
68476;DHT22;55464;48.266;14.188;2022-08-21T08:02:27;18.60;89.90
68476;DHT22;55464;48.266;14.188;2022-08-21T08:04:53;18.60;89.90
68476;DHT22;55464;48.266;14.188;2022-08-21T08:07:19;18.60;89.90
68476;DHT22;55464;48.266;14.188;2022-08-21T08:09:45;18.70;89.80
68476;DHT22;55464;48.266;14.188;2022-08-21T08:12:11;18.60;89.90
68476;DHT22;55464;48.266;14.188;2022-08-21T08:14:37;18.70;89.90
68476;DHT22;55464;48.266;14.188;2022-08-21T08:17:03;18.70;89.80
68476;DHT22;55464;48.266;14.188;2022-08-21T08:19:29;18.60;89.90
68476;DHT22;55464;48.266;14.188;2022-08-21T08:21:54;18.70;89.90
68476;DHT22;55464;48.266;14.188;2022-08-21T08:24:20;18.70;89.90
68476;DHT22;55464;48.266;14.188;2022-08-21T08:26:46;18.70;89.90
68476;DHT22;55464;48.266;14.188;2022-08-21T08:29:12;18.70;89.80
68476;DHT22;55464;48.266;14.188;2022-08-21T08:31:38;18.70;89.90
68476;DHT22;55464;48.266;14.188;2022-08-21T08:34:04;18.70;89.90
68476;DHT22;55464;48.266;14.188;2022-08-21T08:36:35;18.70;90.00
68476;DHT22;55464;48.266;14.188;2022-08-21T08:39:03;18.70;90.00
68476;DHT22;55464;48.266;14.188;2022-08-21T08:41:29;18.70;90.00
68476;DHT22;55464;48.266;14.188;2022-08-21T08:44:01;18.80;89.60
68476;DHT22;55464;48.266;14.188;2022-08-21T08:46:41;18.80;89.70
68476;DHT22;55464;48.266;14.188;2022-08-21T08:49:32;18.80;89.70
68476;DHT22;55464;48.266;14.188;2022-08-21T08:52:19;18.80;89.70
68476;DHT22;55464;48.266;14.188;2022-08-21T08:54:51;18.80;89.80
68476;DHT22;55464;48.266;14.188;2022-08-21T08:57:23;18.80;89.80
68476;DHT22;55464;48.266;14.188;2022-08-21T08:59:52;18.80;89.80
68476;DHT22;55464;48.266;14.188;2022-08-21T09:02:21;18.80;89.30
68476;DHT22;55464;48.266;14.188;2022-08-21T09:04:50;18.70;89.50
68476;DHT22;55464;48.266;14.188;2022-08-21T09:07:38;18.70;89.50
68476;DHT22;55464;48.266;14.188;2022-08-21T09:12:56;18.90;89.30
68476;DHT22;55464;48.266;14.188;2022-08-21T09:21:43;18.90;89.50
68476;DHT22;55464;48.266;14.188;2022-08-21T09:27:06;18.90;89.40
68476;DHT22;55464;48.266;14.188;2022-08-21T09:29:37;18.90;89.60
68476;DHT22;55464;48.266;14.188;2022-08-21T09:32:10;18.90;89.40
68476;DHT22;55464;48.266;14.188;2022-08-21T09:34:36;18.90;89.20
68476;DHT22;55464;48.266;14.188;2022-08-21T09:37:02;18.90;89.30
68476;DHT22;55464;48.266;14.188;2022-08-21T09:39:32;19.00;89.20
68476;DHT22;55464;48.266;14.188;2022-08-21T09:42:07;19.00;89.20
68476;DHT22;55464;48.266;14.188;2022-08-21T09:44:40;19.00;89.10
68476;DHT22;55464;48.266;14.188;2022-08-21T09:47:09;19.00;88.90
68476;DHT22;55464;48.266;14.188;2022-08-21T09:49:38;19.00;89.20
68476;DHT22;55464;48.266;14.188;2022-08-21T09:52:19;19.00;89.10
68476;DHT22;55464;48.266;14.188;2022-08-21T09:54:54;19.00;89.10
68476;DHT22;55464;48.266;14.188;2022-08-21T09:57:30;19.00;89.40
68476;DHT22;55464;48.266;14.188;2022-08-21T10:00:15;19.00;89.50
68476;DHT22;55464;48.266;14.188;2022-08-21T10:02:42;19.00;89.60
68476;DHT22;55464;48.266;14.188;2022-08-21T10:07:41;19.00;89.70
68476;DHT22;55464;48.266;14.188;2022-08-21T10:13:16;19.10;89.10
68476;DHT22;55464;48.266;14.188;2022-08-21T10:22:43;19.30;89.40
68476;DHT22;55464;48.266;14.188;2022-08-21T10:28:08;19.40;89.10
68476;DHT22;55464;48.266;14.188;2022-08-21T10:30:41;19.40;89.00
68476;DHT22;55464;48.266;14.188;2022-08-21T10:35:50;19.40;88.80
68476;DHT22;55464;48.266;14.188;2022-08-21T10:55:16;19.40;88.60
68476;DHT22;55464;48.266;14.188;2022-08-21T10:57:59;19.40;88.20
68476;DHT22;55464;48.266;14.188;2022-08-21T11:00:57;19.10;86.60
68476;DHT22;55464;48.266;14.188;2022-08-21T11:03:33;19.00;86.50
68476;DHT22;55464;48.266;14.188;2022-08-21T11:08:42;18.80;85.90
68476;DHT22;55464;48.266;14.188;2022-08-21T11:11:10;18.80;86.60
68476;DHT22;55464;48.266;14.188;2022-08-21T11:13:52;18.70;86.80
68476;DHT22;55464;48.266;14.188;2022-08-21T11:19:17;18.70;86.80
68476;DHT22;55464;48.266;14.188;2022-08-21T11:22:31;18.60;87.20
68476;DHT22;55464;48.266;14.188;2022-08-21T11:24:57;18.50;87.40
68476;DHT22;55464;48.266;14.188;2022-08-21T11:30:00;18.50;88.10
68476;DHT22;55464;48.266;14.188;2022-08-21T11:43:17;18.60;88.40
68476;DHT22;55464;48.266;14.188;2022-08-21T11:45:55;18.60;88.40
68476;DHT22;55464;48.266;14.188;2022-08-21T11:48:59;18.60;87.90
68476;DHT22;55464;48.266;14.188;2022-08-21T11:56:55;18.50;86.70
68476;DHT22;55464;48.266;14.188;2022-08-21T12:02:27;18.50;86.80
68476;DHT22;55464;48.266;14.188;2022-08-21T12:04:58;18.50;86.50
68476;DHT22;55464;48.266;14.188;2022-08-21T12:07:43;18.50;86.40
68476;DHT22;55464;48.266;14.188;2022-08-21T12:10:16;18.50;86.80
68476;DHT22;55464;48.266;14.188;2022-08-21T12:12:44;18.50;86.50
68476;DHT22;55464;48.266;14.188;2022-08-21T12:15:24;18.50;86.10
68476;DHT22;55464;48.266;14.188;2022-08-21T12:18:02;18.60;86.20
68476;DHT22;55464;48.266;14.188;2022-08-21T12:21:01;18.60;85.90
68476;DHT22;55464;48.266;14.188;2022-08-21T12:23:49;18.60;86.40
68476;DHT22;55464;48.266;14.188;2022-08-21T12:29:25;18.60;86.50
68476;DHT22;55464;48.266;14.188;2022-08-21T12:32:01;18.60;86.70
68476;DHT22;55464;48.266;14.188;2022-08-21T12:34:37;18.50;85.90
68476;DHT22;55464;48.266;14.188;2022-08-21T12:40:00;18.60;85.60
68476;DHT22;55464;48.266;14.188;2022-08-21T12:42:38;18.60;85.90
68476;DHT22;55464;48.266;14.188;2022-08-21T12:45:32;18.60;86.00
68476;DHT22;55464;48.266;14.188;2022-08-21T12:51:15;18.60;86.40
68476;DHT22;55464;48.266;14.188;2022-08-21T12:53:52;18.60;86.70
68476;DHT22;55464;48.266;14.188;2022-08-21T12:56:21;18.60;87.10
68476;DHT22;55464;48.266;14.188;2022-08-21T12:58:50;18.60;87.30
68476;DHT22;55464;48.266;14.188;2022-08-21T13:01:23;18.60;87.60
68476;DHT22;55464;48.266;14.188;2022-08-21T13:03:52;18.60;87.80
68476;DHT22;55464;48.266;14.188;2022-08-21T13:06:20;18.60;88.10
68476;DHT22;55464;48.266;14.188;2022-08-21T13:08:52;18.60;88.30
68476;DHT22;55464;48.266;14.188;2022-08-21T13:11:20;18.70;88.20
68476;DHT22;55464;48.266;14.188;2022-08-21T13:13:51;18.60;88.00
68476;DHT22;55464;48.266;14.188;2022-08-21T13:16:28;18.70;87.90
68476;DHT22;55464;48.266;14.188;2022-08-21T13:18:56;18.70;88.10
68476;DHT22;55464;48.266;14.188;2022-08-21T13:21:28;18.60;88.10
68476;DHT22;55464;48.266;14.188;2022-08-21T13:23:54;18.60;88.00
68476;DHT22;55464;48.266;14.188;2022-08-21T13:26:21;18.70;87.80
68476;DHT22;55464;48.266;14.188;2022-08-21T13:28:48;18.60;87.80
68476;DHT22;55464;48.266;14.188;2022-08-21T13:31:29;18.60;87.90
68476;DHT22;55464;48.266;14.188;2022-08-21T13:33:56;18.60;87.90
68476;DHT22;55464;48.266;14.188;2022-08-21T13:36:37;18.60;88.00
68476;DHT22;55464;48.266;14.188;2022-08-21T13:39:08;18.60;87.50
68476;DHT22;55464;48.266;14.188;2022-08-21T13:41:35;18.60;87.40
68476;DHT22;55464;48.266;14.188;2022-08-21T13:44:23;18.60;87.50
68476;DHT22;55464;48.266;14.188;2022-08-21T13:46:52;18.60;87.50
68476;DHT22;55464;48.266;14.188;2022-08-21T13:49:33;18.60;87.80
68476;DHT22;55464;48.266;14.188;2022-08-21T13:52:00;18.70;87.70
68476;DHT22;55464;48.266;14.188;2022-08-21T13:54:52;18.70;87.50
68476;DHT22;55464;48.266;14.188;2022-08-21T13:57:30;18.70;87.40
68476;DHT22;55464;48.266;14.188;2022-08-21T14:00:16;18.80;87.50
68476;DHT22;55464;48.266;14.188;2022-08-21T14:02:49;18.80;87.20
68476;DHT22;55464;48.266;14.188;2022-08-21T14:05:22;18.80;87.50
68476;DHT22;55464;48.266;14.188;2022-08-21T14:07:52;18.90;87.90
68476;DHT22;55464;48.266;14.188;2022-08-21T14:10:23;18.90;88.00
68476;DHT22;55464;48.266;14.188;2022-08-21T14:12:59;18.90;87.80
68476;DHT22;55464;48.266;14.188;2022-08-21T14:15:30;18.90;87.70
68476;DHT22;55464;48.266;14.188;2022-08-21T14:21:08;19.00;87.90
68476;DHT22;55464;48.266;14.188;2022-08-21T14:23:35;19.20;87.20
68476;DHT22;55464;48.266;14.188;2022-08-21T14:26:03;19.70;87.00
68476;DHT22;55464;48.266;14.188;2022-08-21T14:28:39;21.00;82.70
68476;DHT22;55464;48.266;14.188;2022-08-21T14:31:14;22.10;78.30
68476;DHT22;55464;48.266;14.188;2022-08-21T14:33:40;22.80;75.10
68476;DHT22;55464;48.266;14.188;2022-08-21T14:36:06;23.00;73.30
68476;DHT22;55464;48.266;14.188;2022-08-21T14:38:32;23.00;73.80
68476;DHT22;55464;48.266;14.188;2022-08-21T14:41:06;22.90;74.30
68476;DHT22;55464;48.266;14.188;2022-08-21T14:43:33;22.80;73.60
68476;DHT22;55464;48.266;14.188;2022-08-21T14:46:00;22.60;74.30
68476;DHT22;55464;48.266;14.188;2022-08-21T14:48:26;22.10;76.20
68476;DHT22;55464;48.266;14.188;2022-08-21T14:50:52;21.60;77.60
68476;DHT22;55464;48.266;14.188;2022-08-21T14:53:18;21.30;78.70
68476;DHT22;55464;48.266;14.188;2022-08-21T14:55:44;21.00;79.20
68476;DHT22;55464;48.266;14.188;2022-08-21T14:58:28;20.70;80.50
68476;DHT22;55464;48.266;14.188;2022-08-21T15:00:54;20.40;81.40
68476;DHT22;55464;48.266;14.188;2022-08-21T15:03:21;20.10;82.30
68476;DHT22;55464;48.266;14.188;2022-08-21T15:05:48;20.00;82.90
68476;DHT22;55464;48.266;14.188;2022-08-21T15:08:14;19.90;83.60
68476;DHT22;55464;48.266;14.188;2022-08-21T15:10:40;19.80;84.20
68476;DHT22;55464;48.266;14.188;2022-08-21T15:13:06;19.70;84.80
68476;DHT22;55464;48.266;14.188;2022-08-21T15:15:44;19.60;85.20
68476;DHT22;55464;48.266;14.188;2022-08-21T15:18:11;19.50;85.50
68476;DHT22;55464;48.266;14.188;2022-08-21T15:20:36;19.50;85.50
68476;DHT22;55464;48.266;14.188;2022-08-21T15:23:04;19.50;85.40
68476;DHT22;55464;48.266;14.188;2022-08-21T15:25:30;19.40;85.80
68476;DHT22;55464;48.266;14.188;2022-08-21T15:27:56;19.40;86.20
68476;DHT22;55464;48.266;14.188;2022-08-21T15:30:22;19.30;86.20
68476;DHT22;55464;48.266;14.188;2022-08-21T15:32:48;19.30;86.20
68476;DHT22;55464;48.266;14.188;2022-08-21T15:35:14;19.20;86.40
68476;DHT22;55464;48.266;14.188;2022-08-21T15:37:39;19.30;86.60
68476;DHT22;55464;48.266;14.188;2022-08-21T15:40:06;19.20;86.70
68476;DHT22;55464;48.266;14.188;2022-08-21T15:42:33;19.20;86.80
68476;DHT22;55464;48.266;14.188;2022-08-21T15:44:59;19.10;87.10
68476;DHT22;55464;48.266;14.188;2022-08-21T15:47:28;19.10;87.20
68476;DHT22;55464;48.266;14.188;2022-08-21T15:49:55;19.10;87.40
68476;DHT22;55464;48.266;14.188;2022-08-21T15:52:21;19.10;87.60
68476;DHT22;55464;48.266;14.188;2022-08-21T15:54:47;19.10;87.60
68476;DHT22;55464;48.266;14.188;2022-08-21T15:57:19;19.00;87.70
68476;DHT22;55464;48.266;14.188;2022-08-21T15:59:48;19.00;87.30
68476;DHT22;55464;48.266;14.188;2022-08-21T16:02:26;19.00;87.40
68476;DHT22;55464;48.266;14.188;2022-08-21T16:04:52;19.00;87.10
68476;DHT22;55464;48.266;14.188;2022-08-21T16:07:18;19.00;87.20
68476;DHT22;55464;48.266;14.188;2022-08-21T16:09:44;19.00;87.20
68476;DHT22;55464;48.266;14.188;2022-08-21T16:12:16;19.00;86.90
68476;DHT22;55464;48.266;14.188;2022-08-21T16:14:44;19.00;86.90
68476;DHT22;55464;48.266;14.188;2022-08-21T16:17:09;19.00;87.10
68476;DHT22;55464;48.266;14.188;2022-08-21T16:19:36;19.00;87.10
68476;DHT22;55464;48.266;14.188;2022-08-21T16:22:02;18.90;87.30
68476;DHT22;55464;48.266;14.188;2022-08-21T16:24:28;19.00;87.20
68476;DHT22;55464;48.266;14.188;2022-08-21T16:26:54;18.90;87.10
68476;DHT22;55464;48.266;14.188;2022-08-21T16:29:21;18.90;87.10
68476;DHT22;55464;48.266;14.188;2022-08-21T16:31:47;18.90;87.10
68476;DHT22;55464;48.266;14.188;2022-08-21T16:34:17;18.90;87.00
68476;DHT22;55464;48.266;14.188;2022-08-21T16:36:43;18.90;87.10
68476;DHT22;55464;48.266;14.188;2022-08-21T16:39:09;18.90;87.00
68476;DHT22;55464;48.266;14.188;2022-08-21T16:41:35;18.80;87.20
68476;DHT22;55464;48.266;14.188;2022-08-21T16:44:03;18.90;87.30
68476;DHT22;55464;48.266;14.188;2022-08-21T16:46:33;19.00;86.90
68476;DHT22;55464;48.266;14.188;2022-08-21T16:48:59;19.00;86.70
68476;DHT22;55464;48.266;14.188;2022-08-21T16:51:25;19.00;86.70
68476;DHT22;55464;48.266;14.188;2022-08-21T16:53:51;19.00;86.60